createdAt,value
2019-05-05T00:00:52.720Z,99.90
2019-05-05T00:03:34.285Z,99.90
2019-05-05T00:06:02.812Z,99.90
2019-05-05T00:08:28.234Z,99.90
2019-05-05T00:11:09.599Z,99.90
2019-05-05T00:13:41.906Z,99.90
2019-05-05T00:16:26.233Z,99.90
2019-05-05T00:18:54.272Z,99.90
2019-05-05T00:21:19.790Z,99.90
2019-05-05T00:23:45.264Z,99.90
2019-05-05T00:26:10.939Z,99.90
2019-05-05T00:28:36.397Z,99.90
2019-05-05T00:31:02.081Z,99.90
2019-05-05T00:33:27.548Z,99.90
2019-05-05T00:35:54.507Z,99.90
2019-05-05T00:38:20.104Z,99.90
2019-05-05T00:40:45.566Z,99.90
2019-05-05T00:43:11.000Z,99.90
2019-05-05T00:45:37.831Z,99.90
2019-05-05T00:48:10.182Z,99.90
2019-05-05T00:50:35.847Z,99.90
2019-05-05T00:53:01.292Z,99.90
2019-05-05T00:55:26.880Z,99.90
2019-05-05T00:57:52.353Z,99.90
2019-05-05T01:00:34.998Z,99.90
2019-05-05T01:03:00.573Z,99.90
2019-05-05T01:05:30.479Z,99.90
2019-05-05T01:07:56.007Z,99.90
2019-05-05T01:10:24.621Z,99.90
2019-05-05T01:12:50.024Z,99.90
2019-05-05T01:15:16.254Z,99.90
2019-05-05T01:17:41.712Z,99.90
2019-05-05T01:20:07.739Z,99.90
2019-05-05T01:22:34.176Z,99.90
2019-05-05T01:24:59.691Z,99.90
2019-05-05T01:27:25.558Z,99.90
2019-05-05T01:29:51.005Z,99.90
2019-05-05T01:32:21.910Z,99.90
2019-05-05T01:34:47.492Z,99.90
2019-05-05T01:37:25.357Z,99.90
2019-05-05T01:39:57.177Z,99.90
2019-05-05T01:42:24.720Z,99.90
2019-05-05T01:44:50.403Z,99.90
2019-05-05T01:47:15.895Z,99.90
2019-05-05T01:49:41.326Z,99.90
2019-05-05T01:52:06.777Z,99.90
2019-05-05T01:54:32.206Z,99.90
2019-05-05T01:56:58.419Z,99.90
2019-05-05T01:59:24.804Z,99.90
2019-05-05T02:01:50.316Z,99.90
2019-05-05T02:04:15.767Z,99.90
2019-05-05T02:06:41.503Z,99.90
2019-05-05T02:09:07.735Z,99.90
2019-05-05T02:11:35.153Z,99.90
2019-05-05T02:14:00.330Z,99.90
2019-05-05T02:16:25.784Z,99.90
2019-05-05T02:18:51.314Z,99.90
2019-05-05T02:21:16.774Z,99.90
2019-05-05T02:23:42.242Z,99.90
2019-05-05T02:26:09.579Z,99.90
2019-05-05T02:28:54.242Z,99.90
2019-05-05T02:31:26.657Z,99.90
2019-05-05T02:33:52.363Z,99.90
2019-05-05T02:36:17.809Z,99.90
2019-05-05T02:38:46.291Z,99.90
2019-05-05T02:41:11.047Z,99.90
2019-05-05T02:43:38.733Z,99.90
2019-05-05T02:46:25.445Z,99.90
2019-05-05T02:48:55.291Z,99.90
2019-05-05T02:51:25.641Z,99.90
2019-05-05T02:53:54.411Z,99.90
2019-05-05T02:56:25.838Z,99.90
2019-05-05T02:58:55.885Z,99.90
2019-05-05T03:01:47.692Z,99.90
2019-05-05T03:04:14.235Z,99.90
2019-05-05T03:06:44.467Z,99.90
2019-05-05T03:09:09.917Z,99.90
2019-05-05T03:11:37.941Z,99.90
2019-05-05T03:14:06.620Z,99.90
2019-05-05T03:16:38.721Z,99.90
2019-05-05T03:19:04.766Z,99.90
2019-05-05T03:21:30.510Z,99.90
2019-05-05T03:23:56.576Z,99.90
2019-05-05T03:26:23.399Z,99.90
2019-05-05T03:28:54.656Z,99.90
2019-05-05T03:31:20.897Z,99.90
2019-05-05T03:33:46.995Z,99.90
2019-05-05T03:36:14.003Z,99.90
2019-05-05T03:38:39.924Z,99.90
2019-05-05T03:41:07.586Z,99.90
2019-05-05T03:43:34.808Z,99.90
2019-05-05T03:46:08.741Z,99.90
2019-05-05T03:48:34.791Z,99.90
2019-05-05T03:51:00.320Z,99.90
2019-05-05T03:53:26.652Z,99.90
2019-05-05T03:55:54.503Z,99.90
2019-05-05T03:58:20.545Z,99.90
2019-05-05T04:01:39.186Z,99.90
2019-05-05T04:04:24.767Z,99.90
2019-05-05T04:07:04.535Z,99.90
2019-05-05T04:09:29.556Z,99.90
2019-05-05T04:11:55.006Z,99.90
2019-05-05T04:14:20.997Z,99.90
2019-05-05T04:17:05.746Z,99.90
2019-05-05T04:19:34.169Z,99.90
2019-05-05T04:21:59.354Z,99.90
2019-05-05T04:24:25.062Z,99.90
2019-05-05T04:26:50.423Z,99.90
2019-05-05T04:29:15.856Z,99.90
2019-05-05T04:31:41.273Z,99.90
2019-05-05T04:34:06.761Z,99.90
2019-05-05T04:36:34.010Z,99.90
2019-05-05T04:38:59.284Z,99.90
2019-05-05T04:41:24.742Z,99.90
2019-05-05T04:43:50.179Z,99.90
2019-05-05T04:46:15.653Z,99.90
2019-05-05T04:48:50.126Z,99.90
2019-05-05T04:51:20.003Z,99.90
2019-05-05T04:54:03.886Z,99.90
2019-05-05T04:56:30.040Z,99.90
2019-05-05T04:58:55.728Z,99.90
2019-05-05T05:01:21.097Z,99.90
2019-05-05T05:03:57.015Z,99.90
2019-05-05T05:06:30.776Z,99.90
2019-05-05T05:08:56.309Z,99.90
2019-05-05T05:11:21.997Z,99.90
2019-05-05T05:13:47.747Z,99.90
2019-05-05T05:16:13.981Z,99.90
2019-05-05T05:18:39.515Z,99.90
2019-05-05T05:21:05.072Z,99.90
2019-05-05T05:23:30.543Z,99.90
2019-05-05T05:25:56.042Z,99.90
2019-05-05T05:28:23.635Z,99.90
2019-05-05T05:30:48.967Z,99.90
2019-05-05T05:33:15.017Z,99.90
2019-05-05T05:35:40.495Z,99.90
2019-05-05T05:38:08.027Z,99.90
2019-05-05T05:40:40.327Z,99.90
2019-05-05T05:43:08.208Z,99.90
2019-05-05T05:45:46.940Z,99.90
2019-05-05T05:48:30.024Z,99.90
2019-05-05T05:50:57.911Z,99.90
2019-05-05T05:53:24.012Z,99.90
2019-05-05T05:55:51.106Z,99.90
2019-05-05T05:58:16.564Z,99.90
2019-05-05T06:00:44.306Z,99.90
2019-05-05T06:03:10.372Z,99.90
2019-05-05T06:05:36.548Z,99.90
2019-05-05T06:08:04.526Z,99.90
2019-05-05T06:10:30.165Z,99.90
2019-05-05T06:12:55.758Z,99.90
2019-05-05T06:15:21.411Z,99.90
2019-05-05T06:17:47.129Z,99.90
2019-05-05T06:20:14.380Z,99.90
2019-05-05T06:22:40.126Z,99.90
2019-05-05T06:25:06.594Z,99.90
2019-05-05T06:27:34.293Z,99.90
2019-05-05T06:29:59.670Z,99.90
2019-05-05T06:32:25.496Z,99.90
2019-05-05T06:34:50.860Z,99.90
2019-05-05T06:37:16.330Z,99.90
2019-05-05T06:39:43.819Z,99.90
2019-05-05T06:42:30.826Z,99.90
2019-05-05T06:45:01.027Z,99.90
2019-05-05T06:47:37.006Z,99.90
2019-05-05T06:50:03.704Z,99.90
2019-05-05T06:52:42.006Z,99.90
2019-05-05T06:54:56.663Z,99.90
2019-05-05T06:57:24.054Z,99.90
2019-05-05T06:59:50.142Z,99.90
2019-05-05T07:02:16.419Z,99.90
2019-05-05T07:04:44.295Z,99.90
2019-05-05T07:07:09.325Z,99.90
2019-05-05T07:09:34.938Z,99.90
2019-05-05T07:12:00.580Z,99.90
2019-05-05T07:14:26.078Z,99.90
2019-05-05T07:16:51.868Z,99.90
2019-05-05T07:19:17.713Z,99.90
2019-05-05T07:21:43.798Z,99.90
2019-05-05T07:24:09.395Z,99.90
2019-05-05T07:26:34.930Z,99.90
2019-05-05T07:29:00.348Z,99.90
2019-05-05T07:31:25.801Z,99.90
2019-05-05T07:33:51.386Z,99.90
2019-05-05T07:36:37.534Z,99.90
2019-05-05T07:39:03.878Z,99.90
2019-05-05T07:41:29.372Z,99.90
2019-05-05T07:43:54.885Z,99.90
2019-05-05T07:46:20.444Z,99.90
2019-05-05T07:48:46.119Z,99.90
2019-05-05T07:51:13.855Z,99.90
2019-05-05T07:53:39.614Z,99.90
2019-05-05T07:56:07.596Z,99.90
2019-05-05T07:58:34.410Z,99.90
2019-05-05T08:00:59.757Z,99.90
2019-05-05T08:03:25.234Z,99.90
2019-05-05T08:05:50.670Z,99.90
2019-05-05T08:08:16.147Z,99.90
2019-05-05T08:10:43.654Z,99.90
2019-05-05T08:13:09.912Z,99.90
2019-05-05T08:15:35.580Z,99.90
2019-05-05T08:18:19.013Z,99.90
2019-05-05T08:20:47.317Z,99.90
2019-05-05T08:23:30.142Z,99.90
2019-05-05T08:26:05.199Z,99.90
2019-05-05T08:28:36.430Z,99.90
2019-05-05T08:31:38.996Z,99.90
2019-05-05T08:34:04.769Z,99.90
2019-05-05T08:36:30.351Z,99.90
2019-05-05T08:38:55.809Z,99.90
2019-05-05T08:41:25.512Z,99.90
2019-05-05T08:43:50.977Z,99.90
2019-05-05T08:46:16.476Z,99.90
2019-05-05T08:48:41.930Z,99.90
2019-05-05T08:51:07.435Z,99.90
2019-05-05T08:53:42.490Z,99.90
2019-05-05T08:56:00.560Z,99.90
2019-05-05T08:58:26.154Z,99.90
2019-05-05T09:00:53.611Z,99.90
2019-05-05T09:03:18.836Z,99.90
2019-05-05T09:05:44.311Z,99.90
2019-05-05T09:08:09.794Z,99.90
2019-05-05T09:10:35.201Z,99.90
2019-05-05T09:13:00.959Z,99.90
2019-05-05T09:15:26.392Z,99.90
2019-05-05T09:17:54.291Z,99.90
2019-05-05T09:20:20.308Z,99.90
2019-05-05T09:22:46.251Z,99.90
2019-05-05T09:25:30.060Z,99.90
2019-05-05T09:27:59.363Z,99.90
2019-05-05T09:30:38.880Z,99.90
2019-05-05T09:33:04.625Z,99.90
2019-05-05T09:35:30.468Z,99.90
2019-05-05T09:37:55.999Z,99.90
2019-05-05T09:40:37.997Z,99.90
2019-05-05T09:43:03.922Z,99.90
2019-05-05T09:45:29.362Z,99.90
2019-05-05T09:47:55.178Z,99.90
2019-05-05T09:50:20.854Z,99.90
2019-05-05T09:52:46.219Z,99.90
2019-05-05T09:55:13.694Z,99.90
2019-05-05T09:57:38.909Z,99.80
2019-05-05T10:00:10.706Z,99.90
2019-05-05T10:02:36.647Z,99.90
2019-05-05T10:05:03.997Z,99.90
2019-05-05T10:07:29.822Z,99.90
2019-05-05T10:09:55.298Z,99.90
2019-05-05T10:12:20.861Z,99.90
2019-05-05T10:14:46.836Z,99.90
2019-05-05T10:17:14.126Z,99.90
2019-05-05T10:19:39.636Z,99.90
2019-05-05T10:22:05.487Z,99.90
2019-05-05T10:24:39.362Z,99.90
2019-05-05T10:27:05.075Z,99.90
2019-05-05T10:29:30.482Z,99.90
2019-05-05T10:31:55.846Z,99.90
2019-05-05T10:34:21.507Z,99.90
2019-05-05T10:36:46.951Z,99.90
2019-05-05T10:39:19.202Z,99.90
2019-05-05T10:41:44.872Z,99.90
2019-05-05T10:44:10.300Z,99.00
2019-05-05T10:46:35.881Z,99.90
2019-05-05T10:49:01.347Z,99.90
2019-05-05T10:51:27.149Z,98.50
2019-05-05T10:53:54.507Z,97.70
2019-05-05T10:56:20.069Z,99.30
2019-05-05T10:58:45.562Z,98.50
2019-05-05T11:01:11.080Z,98.40
2019-05-05T11:03:37.093Z,97.00
2019-05-05T11:06:04.536Z,99.10
2019-05-05T11:08:31.089Z,95.00
2019-05-05T11:10:56.600Z,96.80
2019-05-05T11:13:28.447Z,96.00
2019-05-05T11:15:54.662Z,96.20
2019-05-05T11:18:20.888Z,96.10
2019-05-05T11:20:47.630Z,96.60
2019-05-05T11:23:14.938Z,95.10
2019-05-05T11:25:40.741Z,95.80
2019-05-05T11:28:08.589Z,95.90
2019-05-05T11:30:38.176Z,93.80
2019-05-05T11:33:37.913Z,95.00
2019-05-05T11:36:13.490Z,93.70
2019-05-05T11:38:41.234Z,94.00
2019-05-05T11:41:06.500Z,93.60
2019-05-05T11:43:35.090Z,94.10
2019-05-05T11:46:02.137Z,94.60
2019-05-05T11:48:27.719Z,96.10
2019-05-05T11:50:54.136Z,96.20
2019-05-05T11:53:20.277Z,98.30
2019-05-05T11:55:45.643Z,97.60
2019-05-05T11:58:11.213Z,97.90
2019-05-05T12:00:36.849Z,98.40
2019-05-05T12:03:03.855Z,99.30
2019-05-05T12:05:29.550Z,99.90
2019-05-05T12:07:58.469Z,99.90
2019-05-05T12:10:58.242Z,99.90
2019-05-05T12:13:24.121Z,99.90
2019-05-05T12:15:54.351Z,99.80
2019-05-05T12:18:19.780Z,99.30
2019-05-05T12:20:45.304Z,99.40
2019-05-05T12:23:10.862Z,98.40
2019-05-05T12:25:57.287Z,98.50
2019-05-05T12:28:34.702Z,99.00
2019-05-05T12:31:03.593Z,98.50
2019-05-05T12:33:29.358Z,98.40
2019-05-05T12:35:54.781Z,93.50
2019-05-05T12:38:20.228Z,92.30
2019-05-05T12:40:45.962Z,93.00
2019-05-05T12:43:11.528Z,93.60
2019-05-05T12:45:38.662Z,93.00
2019-05-05T12:48:23.966Z,92.40
2019-05-05T12:50:49.253Z,91.90
2019-05-05T12:53:15.011Z,92.50
2019-05-05T12:55:41.847Z,92.10
2019-05-05T12:58:07.688Z,92.70
2019-05-05T13:00:34.619Z,93.60
2019-05-05T13:03:00.061Z,95.20
2019-05-05T13:05:25.540Z,96.70
2019-05-05T13:07:51.036Z,97.50
2019-05-05T13:10:20.853Z,98.50
2019-05-05T13:12:46.575Z,98.40
2019-05-05T13:15:14.250Z,99.20
2019-05-05T13:17:39.457Z,99.00
2019-05-05T13:20:29.183Z,99.90
2019-05-05T13:23:23.458Z,99.80
2019-05-05T13:26:10.408Z,99.50
2019-05-05T13:28:36.043Z,99.40
2019-05-05T13:31:01.527Z,97.90
2019-05-05T13:33:27.354Z,97.10
2019-05-05T13:35:53.778Z,97.00
2019-05-05T13:38:19.630Z,97.40
2019-05-05T13:40:45.353Z,98.20
2019-05-05T13:43:10.785Z,97.30
2019-05-05T13:45:55.746Z,97.70
2019-05-05T13:48:21.277Z,97.30
2019-05-05T13:50:50.055Z,95.00
2019-05-05T13:53:15.772Z,95.20
2019-05-05T13:55:42.345Z,96.00
2019-05-05T13:58:09.022Z,93.80
2019-05-05T14:00:34.507Z,93.60
2019-05-05T14:02:59.936Z,95.00
2019-05-05T14:05:25.382Z,94.60
2019-05-05T14:07:50.829Z,94.10
2019-05-05T14:10:16.925Z,94.90
2019-05-05T14:12:43.781Z,94.60
2019-05-05T14:15:19.452Z,96.90
2019-05-05T14:17:44.982Z,94.70
2019-05-05T14:20:12.101Z,94.70
2019-05-05T14:22:37.620Z,93.50
2019-05-05T14:25:14.294Z,93.90
2019-05-05T14:27:40.006Z,94.20
2019-05-05T14:30:23.813Z,94.10
2019-05-05T14:32:49.347Z,94.30
2019-05-05T14:35:40.253Z,96.20
2019-05-05T14:38:09.455Z,97.90
2019-05-05T14:40:35.018Z,99.00
2019-05-05T14:43:00.594Z,97.70
2019-05-05T14:45:26.177Z,97.20
2019-05-05T14:47:53.474Z,97.80
2019-05-05T14:50:20.850Z,98.10
2019-05-05T14:52:46.302Z,98.30
2019-05-05T14:55:14.082Z,98.30
2019-05-05T14:57:39.704Z,98.30
2019-05-05T15:00:06.479Z,98.10
2019-05-05T15:02:31.910Z,98.50
2019-05-05T15:04:59.887Z,98.50
2019-05-05T15:07:40.581Z,98.10
2019-05-05T15:10:31.479Z,97.80
2019-05-05T15:13:00.918Z,97.80
2019-05-05T15:15:26.862Z,97.70
2019-05-05T15:17:53.664Z,97.10
2019-05-05T15:20:19.259Z,97.60
2019-05-05T15:22:44.715Z,96.40
2019-05-05T15:25:10.223Z,96.40
2019-05-05T15:27:35.695Z,97.20
2019-05-05T15:30:01.500Z,97.10
2019-05-05T15:32:27.113Z,96.40
2019-05-05T15:34:54.512Z,96.90
2019-05-05T15:37:19.813Z,96.60
2019-05-05T15:39:45.363Z,97.10
2019-05-05T15:42:10.881Z,97.20
2019-05-05T15:44:36.525Z,96.90
2019-05-05T15:47:02.259Z,97.60
2019-05-05T15:49:28.143Z,97.50
2019-05-05T15:51:54.017Z,97.10
2019-05-05T15:54:19.766Z,97.60
2019-05-05T15:56:45.386Z,97.30
2019-05-05T15:59:10.792Z,97.40
2019-05-05T16:01:38.068Z,96.90
2019-05-05T16:04:03.678Z,97.50
2019-05-05T16:06:29.986Z,97.80
2019-05-05T16:08:56.679Z,98.00
2019-05-05T16:11:23.379Z,98.40
2019-05-05T16:13:48.826Z,97.80
2019-05-05T16:16:23.592Z,98.30
2019-05-05T16:19:08.636Z,98.40
2019-05-05T16:21:54.649Z,97.80
2019-05-05T16:24:22.338Z,97.80
2019-05-05T16:26:48.009Z,97.70
2019-05-05T16:29:14.825Z,97.70
2019-05-05T16:31:40.584Z,98.10
2019-05-05T16:34:06.193Z,97.30
2019-05-05T16:36:33.571Z,97.60
2019-05-05T16:38:59.327Z,97.20
2019-05-05T16:41:24.847Z,97.20
2019-05-05T16:43:50.712Z,96.10
2019-05-05T16:46:16.990Z,96.30
2019-05-05T16:48:43.926Z,94.50
2019-05-05T16:51:14.065Z,94.10
2019-05-05T16:53:40.822Z,92.70
2019-05-05T16:56:10.593Z,93.40
2019-05-05T16:58:36.199Z,93.20
2019-05-05T17:01:03.809Z,93.20
2019-05-05T17:03:30.173Z,93.90
2019-05-05T17:05:58.135Z,94.70
2019-05-05T17:08:24.473Z,95.10
2019-05-05T17:10:56.159Z,95.70
2019-05-05T17:13:38.027Z,96.50
2019-05-05T17:16:25.901Z,97.10
2019-05-05T17:19:15.427Z,97.80
2019-05-05T17:21:58.632Z,97.40
2019-05-05T17:24:24.226Z,97.50
2019-05-05T17:26:54.863Z,97.30
2019-05-05T17:29:20.035Z,97.40
2019-05-05T17:31:45.799Z,97.80
2019-05-05T17:34:13.602Z,98.30
2019-05-05T17:36:38.762Z,98.00
2019-05-05T17:39:06.920Z,97.70
2019-05-05T17:41:53.873Z,97.30
2019-05-05T17:44:45.581Z,98.20
2019-05-05T17:47:20.012Z,97.90
2019-05-05T17:49:58.061Z,97.90
2019-05-05T17:52:53.616Z,98.50
2019-05-05T17:55:33.850Z,98.00
2019-05-05T17:58:02.580Z,99.00
2019-05-05T18:00:29.258Z,98.10
2019-05-05T18:02:55.304Z,98.20
2019-05-05T18:05:24.803Z,98.50
2019-05-05T18:07:50.644Z,98.20
2019-05-05T18:10:26.744Z,98.40
2019-05-05T18:13:07.259Z,97.80
2019-05-05T18:15:50.846Z,98.20
2019-05-05T18:18:16.715Z,98.70
2019-05-05T18:20:42.153Z,99.20
2019-05-05T18:23:07.935Z,98.30
2019-05-05T18:25:34.684Z,99.20
2019-05-05T18:28:15.299Z,99.70
2019-05-05T18:30:28.050Z,99.90
2019-05-05T18:32:53.543Z,99.90
2019-05-05T18:35:19.389Z,99.90
2019-05-05T18:37:45.351Z,99.90
2019-05-05T18:40:11.361Z,99.90
2019-05-05T18:42:36.891Z,99.90
2019-05-05T18:45:07.056Z,99.90
2019-05-05T18:47:34.072Z,99.90
2019-05-05T18:49:59.822Z,99.90
2019-05-05T18:52:25.678Z,99.90
2019-05-05T18:54:51.215Z,99.90
2019-05-05T18:57:17.365Z,99.70
2019-05-05T18:59:44.738Z,99.80
2019-05-05T19:02:29.505Z,99.30
2019-05-05T19:05:05.342Z,99.10
2019-05-05T19:07:36.700Z,99.70
2019-05-05T19:10:04.032Z,99.50
2019-05-05T19:12:29.665Z,99.20
2019-05-05T19:14:55.271Z,99.40
2019-05-05T19:17:21.168Z,98.90
2019-05-05T19:19:54.935Z,98.70
2019-05-05T19:22:20.413Z,99.10
2019-05-05T19:24:46.961Z,99.00
2019-05-05T19:27:14.167Z,99.00
2019-05-05T19:29:39.829Z,99.40
2019-05-05T19:32:06.170Z,99.70
2019-05-05T19:34:35.143Z,99.90
2019-05-05T19:36:59.241Z,99.50
2019-05-05T19:39:24.890Z,99.90
2019-05-05T19:41:50.884Z,99.90
2019-05-05T19:44:17.230Z,99.90
2019-05-05T19:47:05.683Z,99.90
2019-05-05T19:49:29.785Z,99.60
2019-05-05T19:51:56.155Z,99.90
2019-05-05T19:54:21.962Z,99.90
2019-05-05T19:56:48.161Z,99.90
2019-05-05T19:59:13.901Z,99.90
2019-05-05T20:01:39.681Z,99.90
2019-05-05T20:04:05.177Z,99.90
2019-05-05T20:06:30.635Z,99.90
2019-05-05T20:08:56.317Z,99.90
2019-05-05T20:11:24.610Z,99.90
2019-05-05T20:14:04.701Z,99.90
2019-05-05T20:16:34.276Z,99.90
2019-05-05T20:19:01.511Z,99.90
2019-05-05T20:21:31.537Z,99.90
2019-05-05T20:23:57.604Z,99.90
2019-05-05T20:26:23.993Z,99.90
2019-05-05T20:28:50.580Z,99.90
2019-05-05T20:31:16.507Z,99.90
2019-05-05T20:34:03.872Z,99.90
2019-05-05T20:36:35.788Z,99.90
2019-05-05T20:39:04.349Z,99.90
2019-05-05T20:41:56.205Z,99.90
2019-05-05T20:44:24.739Z,99.90
2019-05-05T20:46:53.556Z,99.90
2019-05-05T20:49:19.295Z,99.90
2019-05-05T20:51:44.828Z,99.90
2019-05-05T20:54:10.337Z,99.90
2019-05-05T20:56:36.073Z,99.90
2019-05-05T20:59:01.456Z,99.90
2019-05-05T21:01:28.032Z,99.90
2019-05-05T21:03:54.095Z,99.90
2019-05-05T21:06:20.435Z,99.90
2019-05-05T21:08:46.281Z,99.90
2019-05-05T21:11:14.093Z,99.90
2019-05-05T21:13:39.205Z,99.90
2019-05-05T21:16:05.579Z,99.90
2019-05-05T21:18:34.525Z,99.90
2019-05-05T21:21:01.299Z,99.90
2019-05-05T21:23:34.442Z,99.90
2019-05-05T21:26:04.500Z,99.90
2019-05-05T21:28:29.933Z,99.90
2019-05-05T21:30:55.735Z,99.90
2019-05-05T21:33:21.254Z,99.90
2019-05-05T21:35:46.735Z,99.90
2019-05-05T21:38:14.175Z,99.90
2019-05-05T21:40:40.419Z,99.90
2019-05-05T21:43:06.618Z,99.90
2019-05-05T21:45:32.084Z,99.90
2019-05-05T21:47:58.085Z,99.90
2019-05-05T21:50:33.912Z,99.90
2019-05-05T21:53:07.942Z,99.90
2019-05-05T21:55:38.643Z,99.90
2019-05-05T21:58:15.829Z,99.90
2019-05-05T22:01:04.409Z,99.90
2019-05-05T22:03:39.106Z,99.90
2019-05-05T22:06:07.227Z,99.90
2019-05-05T22:08:33.641Z,99.90
2019-05-05T22:10:59.255Z,99.90
2019-05-05T22:13:24.702Z,99.90
2019-05-05T22:15:50.153Z,99.90
2019-05-05T22:18:15.593Z,99.90
2019-05-05T22:20:45.574Z,99.90
2019-05-05T22:23:11.008Z,99.90
2019-05-05T22:25:36.449Z,99.90
2019-05-05T22:28:04.271Z,99.90
2019-05-05T22:30:29.618Z,99.90
2019-05-05T22:32:54.974Z,99.90
2019-05-05T22:35:20.848Z,99.90
2019-05-05T22:37:46.275Z,99.90
2019-05-05T22:40:24.433Z,99.90
2019-05-05T22:42:50.237Z,99.90
2019-05-05T22:45:16.576Z,99.90
2019-05-05T22:47:42.127Z,99.90
2019-05-05T22:50:08.566Z,99.90
2019-05-05T22:52:34.611Z,99.90
2019-05-05T22:55:00.329Z,99.90
2019-05-05T22:57:26.498Z,99.90
2019-05-05T22:59:53.995Z,99.90
2019-05-05T23:02:21.234Z,99.90
2019-05-05T23:05:09.247Z,99.90
2019-05-05T23:07:35.125Z,99.90
2019-05-05T23:10:01.339Z,99.90
2019-05-05T23:12:26.796Z,99.90
2019-05-05T23:14:54.345Z,99.90
2019-05-05T23:17:28.776Z,99.90
2019-05-05T23:20:04.796Z,99.90
2019-05-05T23:22:54.796Z,99.90
2019-05-05T23:25:26.390Z,99.90
2019-05-05T23:27:54.571Z,99.90
2019-05-05T23:30:23.563Z,99.90
2019-05-05T23:32:49.435Z,99.90
2019-05-05T23:35:15.663Z,99.90
2019-05-05T23:37:41.823Z,99.90
2019-05-05T23:40:07.987Z,99.90
2019-05-05T23:42:34.588Z,99.90
2019-05-05T23:45:00.510Z,99.90
2019-05-05T23:47:27.030Z,99.90
2019-05-05T23:49:53.768Z,99.90
2019-05-05T23:52:20.227Z,99.90
2019-05-05T23:54:45.725Z,99.90
2019-05-05T23:57:13.770Z,99.90
2019-05-05T23:59:39.640Z,99.90
